SYD weather

Sydney Kingsford Smith International Airport
Sydney, New South Wales, Australia

Public forecast

Using degrees Celsius for public forecast. Weather courtesy of forecast.io.

METAR (pilot weather report)

Retrieved 2018/10/17 17:30 UTC (16 minutes ago):

YSSY 171730Z 01004KT 9999 FEW006 BKN017 BKN022 18/17 Q1015 FM1745 34005KT 8000 HZ BKN005

TAF (pilot weather forecast)

Forecast is more than 6 hours old.

Retrieved 2018/10/17 06:47 UTC (11 hours ago):

TAF YSSY 170507Z 1706/1812 03018KT 9999 -SHRA FEW015 SCT025 FM171000 01010KT 9999 -SHRA FEW010 SCT020 FM180200 03018KT 9999 -SHRA SCT025 FM181000 01010KT 9999 SCT035 INTER 1709/1803 4000 SHRA BKN010 PROB30 TEMPO 1706/1709 VRB20G30KT 3000 TSRA BKN010 SCT040CB PROB30 TEMPO 1803/1809 VRB20G30KT 3000 TSRA BKN010 SCT040CB